Time;durP1;ratioP1;P1;durP2;ratioP2;P2;SDS_P1;SDS_P2;PMS_P1;PMS_P2;Temp;Humidity;BMP_temperature;BMP_pressure;BME280_temperature;BME280_humidity;BME280_pressure;Samples;Min_cycle;Max_cycle;Signal;HPM_P1;HPM_P2
2021/10/12 00:00:03;;;;;;;8.27;2.63;;;7.80;99.90;;;;;;5249383;28;20208;-60
2021/10/12 00:02:35;;;;;;;5.43;2.50;;;7.80;99.90;;;;;;5247815;28;20240;-65
2021/10/12 00:05:13;;;;;;;4.10;2.10;;;7.80;99.90;;;;;;5249076;28;20196;-64
2021/10/12 00:07:46;;;;;;;3.80;2.00;;;7.70;99.90;;;;;;5249097;28;20691;-63
2021/10/12 00:10:19;;;;;;;3.63;1.90;;;7.70;99.90;;;;;;5249412;28;20225;-60
2021/10/12 00:12:51;;;;;;;5.03;1.90;;;7.60;99.90;;;;;;5248786;28;20208;-60
2021/10/12 00:15:27;;;;;;;4.20;1.80;;;7.60;99.90;;;;;;5248284;28;20601;-62
2021/10/12 00:18:00;;;;;;;3.60;1.30;;;7.60;99.90;;;;;;5250024;28;20192;-62
2021/10/12 00:20:33;;;;;;;2.97;1.50;;;7.50;99.90;;;;;;5249292;28;20213;-62
2021/10/12 00:23:06;;;;;;;2.63;1.40;;;7.50;99.90;;;;;;5247683;28;20220;-62
2021/10/12 00:25:41;;;;;;;2.63;1.37;;;7.50;99.90;;;;;;5247740;28;20236;-63
2021/10/12 00:28:13;;;;;;;4.70;1.40;;;7.40;99.90;;;;;;5251009;28;20204;-59
2021/10/12 00:30:46;;;;;;;2.57;1.20;;;7.40;99.90;;;;;;5252958;28;20626;-67
2021/10/12 00:33:18;;;;;;;2.83;1.20;;;7.30;99.90;;;;;;5252913;28;20671;-69
2021/10/12 00:35:50;;;;;;;1.57;0.93;;;7.30;99.90;;;;;;5253113;28;20553;-62
2021/10/12 00:38:22;;;;;;;4.23;1.40;;;7.20;99.90;;;;;;5253162;28;20197;-64
2021/10/12 00:40:57;;;;;;;2.00;1.13;;;7.20;99.90;;;;;;5253184;28;20205;-67
2021/10/12 00:43:31;;;;;;;2.60;1.30;;;7.10;99.90;;;;;;5252204;28;20623;-63
2021/10/12 00:46:03;;;;;;;2.73;1.20;;;7.10;99.90;;;;;;5253086;28;20541;-61
2021/10/12 00:48:38;;;;;;;3.70;1.67;;;7.10;99.90;;;;;;5253851;28;20197;-63
2021/10/12 00:51:10;;;;;;;3.00;1.00;;;7.10;99.90;;;;;;5253271;28;20247;-62
2021/10/12 00:53:42;;;;;;;1.50;1.10;;;7.00;99.90;;;;;;5254759;28;20239;-64
2021/10/12 00:56:14;;;;;;;4.40;1.30;;;7.00;99.90;;;;;;5253919;28;20213;-62
2021/10/12 00:58:48;;;;;;;4.53;1.40;;;7.00;99.90;;;;;;5253927;28;20321;-64
2021/10/12 01:01:22;;;;;;;4.53;1.63;;;6.90;99.90;;;;;;5253123;28;20225;-59
2021/10/12 01:03:54;;;;;;;2.70;1.20;;;6.90;99.90;;;;;;5254079;28;20269;-61
2021/10/12 01:06:26;;;;;;;4.20;1.10;;;6.90;99.90;;;;;;5252486;28;20211;-61
2021/10/12 01:09:02;;;;;;;2.97;1.10;;;6.90;99.90;;;;;;5252154;28;20231;-62
2021/10/12 01:11:35;;;;;;;2.00;1.00;;;6.90;99.90;;;;;;5251173;28;20224;-66
2021/10/12 01:14:09;;;;;;;4.27;1.10;;;6.80;99.90;;;;;;5253008;28;20346;-63
2021/10/12 01:16:44;;;;;;;3.70;1.13;;;6.80;99.90;;;;;;5252798;28;20208;-62
2021/10/12 01:19:16;;;;;;;3.53;1.20;;;6.80;99.90;;;;;;5252634;28;20200;-60
2021/10/12 01:21:49;;;;;;;5.97;1.47;;;6.80;99.90;;;;;;5252149;28;20216;-64
2021/10/12 01:24:23;;;;;;;3.27;1.40;;;6.70;99.90;;;;;;5252666;28;20517;-64
2021/10/12 01:26:55;;;;;;;2.57;1.53;;;6.70;99.90;;;;;;5252706;28;20234;-62
2021/10/12 01:29:29;;;;;;;3.50;1.97;;;6.80;99.90;;;;;;5252206;28;20223;-64
2021/10/12 01:32:01;;;;;;;5.23;2.27;;;6.70;99.90;;;;;;5252945;28;20205;-62
2021/10/12 01:34:36;;;;;;;5.43;1.70;;;6.70;99.90;;;;;;5251255;28;20201;-65
2021/10/12 01:37:08;;;;;;;5.80;2.10;;;6.70;99.90;;;;;;5252184;28;20546;-71
2021/10/12 01:39:40;;;;;;;6.33;2.00;;;6.70;99.90;;;;;;5250666;28;20201;-64
2021/10/12 01:42:12;;;;;;;9.37;2.90;;;6.80;99.90;;;;;;5250876;28;20244;-61
2021/10/12 01:44:45;;;;;;;4.23;2.40;;;6.80;99.90;;;;;;5251037;28;20506;-58
2021/10/12 01:47:17;;;;;;;7.77;2.43;;;6.80;99.90;;;;;;5250714;28;20235;-61
2021/10/12 01:49:51;;;;;;;4.60;2.50;;;6.90;99.90;;;;;;5250845;28;20204;-63
2021/10/12 01:52:24;;;;;;;10.60;2.87;;;6.80;99.90;;;;;;5251215;28;20224;-59
2021/10/12 01:54:56;;;;;;;7.57;2.33;;;6.80;99.90;;;;;;5249672;28;20252;-61
2021/10/12 01:57:28;;;;;;;6.43;2.60;;;6.80;99.90;;;;;;5250892;28;20282;-61
2021/10/12 02:00:05;;;;;;;5.77;2.43;;;6.80;99.90;;;;;;5251049;28;20532;-66
2021/10/12 02:02:37;;;;;;;5.73;2.63;;;6.80;99.90;;;;;;5250803;28;20231;-66
2021/10/12 02:05:09;;;;;;;4.13;2.30;;;6.80;99.90;;;;;;5250750;28;20569;-67
2021/10/12 02:07:41;;;;;;;4.27;2.00;;;6.80;99.90;;;;;;5250391;28;20250;-61
2021/10/12 02:10:13;;;;;;;6.53;2.83;;;6.70;99.90;;;;;;5250696;28;20201;-64
2021/10/12 02:12:48;;;;;;;3.03;2.20;;;6.70;99.90;;;;;;5250700;28;20232;-61
2021/10/12 02:15:23;;;;;;;5.20;2.07;;;6.70;99.90;;;;;;5251536;28;20204;-62
2021/10/12 02:17:55;;;;;;;5.10;2.40;;;6.70;99.90;;;;;;5250487;28;20232;-62
2021/10/12 02:20:27;;;;;;;5.63;2.90;;;6.70;99.90;;;;;;5250529;28;20215;-58
2021/10/12 02:22:59;;;;;;;3.13;1.90;;;6.60;99.90;;;;;;5250613;28;20346;-63
2021/10/12 02:25:31;;;;;;;6.47;2.37;;;6.60;99.90;;;;;;5250518;28;20197;-62
2021/10/12 02:28:05;;;;;;;4.57;2.37;;;6.60;99.90;;;;;;5249528;28;20225;-62
2021/10/12 02:30:37;;;;;;;5.73;1.93;;;6.60;99.90;;;;;;5249125;28;20294;-62
2021/10/12 02:33:09;;;;;;;3.70;1.87;;;6.60;99.90;;;;;;5249165;28;20233;-68
2021/10/12 02:35:42;;;;;;;6.67;2.13;;;6.60;99.90;;;;;;5248911;28;20213;-63
2021/10/12 02:38:14;;;;;;;6.80;2.13;;;6.60;99.90;;;;;;5250220;28;20233;-64
2021/10/12 02:40:49;;;;;;;5.83;2.00;;;6.60;99.90;;;;;;5249797;28;20213;-63
2021/10/12 02:43:23;;;;;;;4.63;1.90;;;6.60;99.90;;;;;;5249927;28;20235;-69
2021/10/12 02:45:55;;;;;;;8.53;1.90;;;6.50;99.90;;;;;;5249178;28;20663;-64
2021/10/12 02:48:27;;;;;;;7.10;2.03;;;6.50;99.90;;;;;;5249776;28;20316;-65
2021/10/12 02:51:02;;;;;;;5.63;1.60;;;6.50;99.90;;;;;;5249970;28;20251;-61
2021/10/12 02:53:33;;;;;;;5.63;1.97;;;6.50;99.90;;;;;;5251098;28;20235;-63
2021/10/12 02:56:05;;;;;;;3.20;1.80;;;6.50;99.90;;;;;;5251216;28;20572;-61
2021/10/12 02:58:37;;;;;;;6.00;2.13;;;6.50;99.90;;;;;;5249011;28;20232;-63
2021/10/12 03:01:12;;;;;;;7.23;2.10;;;6.50;99.90;;;;;;5249782;28;20217;-61
2021/10/12 03:03:46;;;;;;;4.97;1.73;;;6.50;99.90;;;;;;5249524;28;20235;-63
2021/10/12 03:06:18;;;;;;;6.10;2.23;;;6.50;99.90;;;;;;5248581;28;20227;-67
2021/10/12 03:08:52;;;;;;;5.17;2.47;;;6.50;99.90;;;;;;5248645;28;20228;-67
2021/10/12 03:11:24;;;;;;;4.40;1.90;;;6.40;99.90;;;;;;5249840;28;20547;-66
2021/10/12 03:13:56;;;;;;;6.77;2.10;;;6.40;99.90;;;;;;5248664;28;20227;-62
2021/10/12 03:16:31;;;;;;;7.33;1.60;;;6.50;99.90;;;;;;5249552;28;20200;-68
2021/10/12 03:19:03;;;;;;;5.03;1.50;;;6.50;99.90;;;;;;5248437;28;20223;-64
2021/10/12 03:21:36;;;;;;;3.83;1.50;;;6.50;99.90;;;;;;5248658;28;20231;-61
2021/10/12 03:24:10;;;;;;;7.07;1.70;;;6.50;99.90;;;;;;5248441;28;20593;-57
2021/10/12 03:26:42;;;;;;;7.07;1.73;;;6.50;99.90;;;;;;5250869;28;20208;-62
2021/10/12 03:29:15;;;;;;;6.47;1.50;;;6.50;99.90;;;;;;5249152;28;20240;-64
2021/10/12 03:31:47;;;;;;;7.57;1.60;;;6.50;99.90;;;;;;5248342;28;20263;-63
2021/10/12 03:34:19;;;;;;;5.50;1.70;;;6.50;99.90;;;;;;5248948;28;20235;-63
2021/10/12 03:36:51;;;;;;;5.33;1.70;;;6.50;99.90;;;;;;5248922;28;20525;-67
2021/10/12 03:39:27;;;;;;;4.27;1.67;;;6.50;99.90;;;;;;5248252;28;20679;-65
2021/10/12 03:42:04;;;;;;;6.00;1.47;;;6.50;99.90;;;;;;5248128;28;20231;-64
2021/10/12 03:44:39;;;;;;;6.50;1.80;;;6.50;99.90;;;;;;5249070;28;20570;-68
2021/10/12 03:47:11;;;;;;;5.40;1.67;;;6.50;99.90;;;;;;5248400;28;20199;-64
2021/10/12 03:49:45;;;;;;;5.73;1.60;;;6.50;99.90;;;;;;5249246;28;20252;-64
2021/10/12 03:52:17;;;;;;;3.10;1.47;;;6.50;99.90;;;;;;5249389;28;20651;-67
2021/10/12 03:54:51;;;;;;;5.87;1.70;;;6.50;99.90;;;;;;5249281;28;20216;-63
2021/10/12 03:57:23;;;;;;;3.87;1.50;;;6.50;99.90;;;;;;5249184;28;20211;-59
2021/10/12 03:59:55;;;;;;;8.00;1.80;;;6.50;99.90;;;;;;5249295;28;20204;-68
2021/10/12 04:02:27;;;;;;;8.10;1.73;;;6.50;99.90;;;;;;5251153;28;20242;-62
2021/10/12 04:04:59;;;;;;;5.00;1.97;;;6.40;99.90;;;;;;5253642;28;20208;-62
2021/10/12 04:07:33;;;;;;;7.37;1.87;;;6.40;99.90;;;;;;5252783;28;20233;-63
2021/10/12 04:10:09;;;;;;;3.63;1.63;;;6.40;99.90;;;;;;5254066;28;20213;-63
2021/10/12 04:12:43;;;;;;;8.73;2.50;;;6.40;99.90;;;;;;5253251;28;20628;-65
2021/10/12 04:15:15;;;;;;;8.60;1.80;;;6.30;99.90;;;;;;5252669;28;20252;-65
2021/10/12 04:17:48;;;;;;;7.43;1.60;;;6.30;99.90;;;;;;5251925;28;20205;-64
2021/10/12 04:20:27;;;;;;;5.13;1.50;;;6.30;99.90;;;;;;5251434;28;20758;-67
2021/10/12 04:22:59;;;;;;;9.50;1.90;;;6.30;99.90;;;;;;5252856;28;20208;-66
2021/10/12 04:25:31;;;;;;;6.43;1.87;;;6.30;99.90;;;;;;5251096;28;20212;-64
2021/10/12 04:28:11;;;;;;;4.33;1.50;;;6.30;99.90;;;;;;5252535;28;20201;-66
2021/10/12 04:30:45;;;;;;;4.53;1.93;;;6.30;99.90;;;;;;5252640;28;20208;-61
2021/10/12 04:33:20;;;;;;;6.50;1.77;;;6.30;99.90;;;;;;5252634;28;20189;-61
2021/10/12 04:35:52;;;;;;;4.33;1.60;;;6.30;99.90;;;;;;5252186;28;20214;-66
2021/10/12 04:38:28;;;;;;;5.13;1.70;;;6.30;99.90;;;;;;5252273;28;20196;-63
2021/10/12 04:41:03;;;;;;;5.30;1.57;;;6.30;99.90;;;;;;5252599;28;20609;-61
2021/10/12 04:43:39;;;;;;;7.83;1.80;;;6.30;99.90;;;;;;5252304;28;20223;-62
2021/10/12 04:46:14;;;;;;;6.00;2.13;;;6.30;99.90;;;;;;5252491;28;20308;-66
2021/10/12 04:48:48;;;;;;;7.40;1.70;;;6.30;99.90;;;;;;5252965;28;20199;-61
2021/10/12 04:51:22;;;;;;;4.33;1.63;;;6.20;99.90;;;;;;5252572;28;20535;-61
2021/10/12 04:53:54;;;;;;;8.43;2.00;;;6.20;99.90;;;;;;5252167;28;20193;-68
2021/10/12 04:56:26;;;;;;;5.10;1.50;;;6.20;99.90;;;;;;5252829;28;20213;-63
2021/10/12 04:59:01;;;;;;;4.27;2.00;;;6.20;99.90;;;;;;5251581;28;20609;-65
2021/10/12 05:01:34;;;;;;;8.03;2.23;;;6.20;99.90;;;;;;5250952;28;20232;-68
2021/10/12 05:04:09;;;;;;;6.17;1.73;;;6.20;99.90;;;;;;5250823;28;20251;-62
2021/10/12 05:06:40;;;;;;;5.50;2.63;;;6.20;99.90;;;;;;5251903;28;20193;-64
2021/10/12 05:09:12;;;;;;;8.23;2.10;;;6.20;99.90;;;;;;5252084;28;20208;-63
2021/10/12 05:11:47;;;;;;;9.10;1.97;;;6.20;99.90;;;;;;5251960;28;20228;-59
2021/10/12 05:14:19;;;;;;;6.50;1.93;;;6.20;99.90;;;;;;5249939;28;20604;-63
2021/10/12 05:16:54;;;;;;;4.43;1.90;;;6.20;99.90;;;;;;5251995;28;20227;-69
2021/10/12 05:19:26;;;;;;;6.23;1.80;;;6.20;99.90;;;;;;5251217;28;20273;-58
2021/10/12 05:22:03;;;;;;;7.10;1.60;;;6.20;99.90;;;;;;5252601;28;20509;-63
2021/10/12 05:24:35;;;;;;;6.10;2.03;;;6.20;99.90;;;;;;5252894;28;20244;-62
2021/10/12 05:27:07;;;;;;;8.30;1.70;;;6.20;99.90;;;;;;5251704;28;20223;-62
2021/10/12 05:29:39;;;;;;;9.27;1.90;;;6.20;99.90;;;;;;5249313;28;20220;-59
2021/10/12 05:32:14;;;;;;;5.30;1.70;;;6.20;99.90;;;;;;5249782;28;20211;-56
2021/10/12 05:34:46;;;;;;;3.77;1.43;;;6.20;99.90;;;;;;5250285;28;20536;-66
2021/10/12 05:37:20;;;;;;;7.07;1.67;;;6.20;99.90;;;;;;5251511;28;20209;-64
2021/10/12 05:39:52;;;;;;;5.20;1.40;;;6.20;99.90;;;;;;5250990;28;20197;-66
2021/10/12 05:42:24;;;;;;;6.20;1.80;;;6.20;99.90;;;;;;5251473;28;20236;-62
2021/10/12 05:44:58;;;;;;;4.20;1.63;;;6.20;99.90;;;;;;5250719;28;20205;-60
2021/10/12 05:47:30;;;;;;;4.67;2.40;;;6.20;99.90;;;;;;5250611;28;20206;-62
2021/10/12 05:50:03;;;;;;;6.10;1.80;;;6.20;99.90;;;;;;5250152;28;20277;-63
2021/10/12 05:52:37;;;;;;;8.60;2.13;;;6.20;99.90;;;;;;5251395;28;20209;-63
2021/10/12 05:55:15;;;;;;;5.90;2.10;;;6.20;99.90;;;;;;5250500;28;20251;-64
2021/10/12 06:00:25;;;;;;;2.93;1.50;;;6.30;99.90;;;;;;5250053;28;20467;-63
2021/10/12 06:02:57;;;;;;;4.53;1.40;;;6.50;99.90;;;;;;5250294;28;20224;-69
2021/10/12 06:05:29;;;;;;;6.43;1.30;;;6.60;99.90;;;;;;5250501;28;20201;-58
2021/10/12 06:08:01;;;;;;;5.03;2.30;;;6.80;99.90;;;;;;5249277;28;20229;-57
2021/10/12 06:10:34;;;;;;;6.03;1.30;;;7.30;99.90;;;;;;5248457;28;20229;-65
2021/10/12 06:13:11;;;;;;;2.90;1.07;;;8.00;99.90;;;;;;5249660;28;20204;-65
2021/10/12 06:15:44;;;;;;;6.30;1.40;;;9.20;99.90;;;;;;5247514;28;20220;-56
2021/10/12 06:18:15;;;;;;;3.70;1.00;;;10.50;99.90;;;;;;5243650;28;20201;-65
2021/10/12 06:20:48;;;;;;;3.33;1.00;;;11.90;99.90;;;;;;5246062;28;20231;-59
2021/10/12 06:23:22;;;;;;;3.67;0.70;;;12.90;99.90;;;;;;5248864;28;20232;-64
2021/10/12 06:25:54;;;;;;;4.63;1.03;;;13.70;99.90;;;;;;5249741;28;20212;-60
2021/10/12 06:28:29;;;;;;;2.40;0.90;;;14.00;99.90;;;;;;5249644;28;20283;-64
2021/10/12 06:31:03;;;;;;;3.77;1.10;;;13.90;99.90;;;;;;5250373;28;20668;-58
2021/10/12 06:33:36;;;;;;;4.60;0.90;;;14.10;99.90;;;;;;5250400;28;20204;-64
2021/10/12 06:36:10;;;;;;;5.37;1.10;;;15.40;99.90;;;;;;5250247;28;20242;-64
2021/10/12 06:38:44;;;;;;;3.78;1.02;;;17.00;99.90;;;;;;5249642;28;20227;-63
2021/10/12 06:41:17;;;;;;;2.60;1.10;;;17.80;99.90;;;;;;5250391;28;20232;-62
2021/10/12 06:44:06;;;;;;;3.88;0.77;;;18.10;99.90;;;;;;5235003;28;20254;-64
2021/10/12 06:46:38;;;;;;;2.15;0.80;;;18.20;99.90;;;;;;5248427;28;20231;-65
2021/10/12 06:49:10;;;;;;;4.63;1.55;;;18.00;99.90;;;;;;5249855;28;20193;-61
2021/10/12 06:51:43;;;;;;;2.70;1.17;;;17.70;99.90;;;;;;5249724;28;20545;-63
2021/10/12 06:54:25;;;;;;;5.18;1.45;;;17.80;99.90;;;;;;5249531;28;20204;-65
2021/10/12 06:56:59;;;;;;;4.45;0.90;;;18.00;99.90;;;;;;5249595;28;20247;-66
2021/10/12 06:59:31;;;;;;;4.25;1.20;;;17.90;99.90;;;;;;5249921;28;20235;-63
2021/10/12 07:02:03;;;;;;;6.28;1.60;;;17.00;99.90;;;;;;5249568;28;20239;-64
2021/10/12 07:04:39;;;;;;;3.13;0.90;;;15.90;99.90;;;;;;5249372;28;20228;-62
2021/10/12 07:07:11;;;;;;;4.40;1.10;;;15.20;99.90;;;;;;5249317;28;20233;-66
2021/10/12 07:09:43;;;;;;;5.13;1.30;;;14.30;99.90;;;;;;5249435;28;20529;-61
2021/10/12 07:12:15;;;;;;;4.63;1.37;;;13.40;99.90;;;;;;5249417;28;20229;-64
2021/10/12 07:14:49;;;;;;;5.47;1.30;;;12.90;99.90;;;;;;5249439;28;20209;-62
2021/10/12 07:17:21;;;;;;;3.73;1.23;;;12.50;99.90;;;;;;5249390;28;20569;-64
2021/10/12 07:19:53;;;;;;;5.17;1.40;;;12.20;99.90;;;;;;5249471;28;20640;-70
2021/10/12 07:22:27;;;;;;;3.60;1.70;;;11.90;99.90;;;;;;5249112;28;20283;-63
2021/10/12 07:25:01;;;;;;;4.33;1.63;;;11.70;99.90;;;;;;5249526;28;20239;-63
2021/10/12 07:27:37;;;;;;;3.60;1.20;;;11.50;99.90;;;;;;5249438;28;20231;-64
2021/10/12 07:30:25;;;;;;;5.53;1.30;;;11.30;99.90;;;;;;5248395;28;20568;-63
2021/10/12 07:32:57;;;;;;;4.43;1.50;;;11.00;99.90;;;;;;5262616;28;20266;-62
2021/10/12 07:35:29;;;;;;;4.43;1.40;;;10.80;99.90;;;;;;5249773;28;20212;-65
2021/10/12 07:38:01;;;;;;;6.03;1.53;;;10.70;99.90;;;;;;5248756;28;20248;-62
2021/10/12 07:40:33;;;;;;;5.93;1.43;;;10.60;99.90;;;;;;5249796;28;20204;-63
2021/10/12 07:43:09;;;;;;;3.63;1.37;;;10.50;99.90;;;;;;5250121;28;20644;-63
2021/10/12 07:45:45;;;;;;;3.50;1.40;;;10.40;99.90;;;;;;5248799;28;20200;-61
2021/10/12 07:48:22;;;;;;;2.60;1.23;;;10.40;99.90;;;;;;5281372;28;20233;-65
2021/10/12 07:50:54;;;;;;;4.60;1.67;;;10.50;99.90;;;;;;5248920;28;20196;-65
2021/10/12 07:53:26;;;;;;;4.93;1.40;;;10.50;99.90;;;;;;5247932;28;20656;-65
2021/10/12 07:56:00;;;;;;;4.03;1.60;;;10.50;99.90;;;;;;5244969;28;20209;-62
2021/10/12 07:58:32;;;;;;;4.77;1.73;;;10.50;99.90;;;;;;5247821;28;20239;-61
2021/10/12 08:01:04;;;;;;;4.10;1.50;;;10.60;99.90;;;;;;5246897;28;20204;-66
2021/10/12 08:03:41;;;;;;;3.53;1.50;;;10.70;99.90;;;;;;5248138;28;20225;-69
2021/10/12 08:06:15;;;;;;;3.03;1.43;;;10.60;99.90;;;;;;5249218;28;20196;-62
2021/10/12 08:08:47;;;;;;;3.33;1.33;;;10.70;99.90;;;;;;5248666;28;20549;-66
2021/10/12 08:11:24;;;;;;;3.57;1.40;;;10.70;99.90;;;;;;5249079;28;20498;-66
2021/10/12 08:14:00;;;;;;;4.23;1.10;;;10.70;99.90;;;;;;5230809;28;20215;-64
2021/10/12 08:16:32;;;;;;;3.67;1.40;;;10.70;99.90;;;;;;5228113;28;20190;-67
2021/10/12 08:19:07;;;;;;;4.77;1.23;;;10.50;99.90;;;;;;5229104;28;20220;-68
2021/10/12 08:21:39;;;;;;;5.33;1.30;;;10.40;99.90;;;;;;5229243;28;20194;-66
2021/10/12 08:24:17;;;;;;;4.57;1.33;;;10.30;99.90;;;;;;5228879;28;20491;-61
2021/10/12 08:26:50;;;;;;;3.77;1.30;;;10.20;99.90;;;;;;5227970;28;20211;-62
2021/10/12 08:29:22;;;;;;;3.40;1.40;;;10.10;99.90;;;;;;5228004;28;20212;-66
2021/10/12 08:31:54;;;;;;;4.03;1.30;;;10.20;99.90;;;;;;5228171;28;20633;-65
2021/10/12 08:34:35;;;;;;;6.17;1.43;;;10.30;99.90;;;;;;5235001;28;20201;-61
2021/10/12 08:37:09;;;;;;;6.67;1.37;;;10.30;99.90;;;;;;5249021;28;20291;-68
2021/10/12 08:39:44;;;;;;;2.13;1.10;;;10.30;99.90;;;;;;5248100;28;20201;-64
2021/10/12 08:42:27;;;;;;;4.10;1.20;;;10.30;99.90;;;;;;5248747;28;20512;-67
2021/10/12 08:45:05;;;;;;;4.33;1.20;;;10.30;99.90;;;;;;5248323;28;20240;-45
2021/10/12 08:47:37;;;;;;;2.63;1.07;;;10.20;99.90;;;;;;5248391;28;20233;-62
2021/10/12 08:50:19;;;;;;;3.17;1.03;;;10.40;99.90;;;;;;5250695;28;20209;-62
2021/10/12 08:52:51;;;;;;;2.73;1.00;;;10.40;99.90;;;;;;5252163;28;20200;-65
2021/10/12 08:55:23;;;;;;;2.90;1.00;;;10.50;99.90;;;;;;5252245;28;20216;-59
2021/10/12 08:57:55;;;;;;;5.27;1.30;;;10.60;99.90;;;;;;5251712;28;20215;-64
2021/10/12 09:00:29;;;;;;;3.43;1.20;;;10.70;99.90;;;;;;5251767;28;20227;-59
2021/10/12 09:05:59;;;;;;;2.80;0.90;;;10.80;99.90;;;;;;5255851;28;20207;-62
2021/10/12 09:08:38;;;;;;;4.10;1.30;;;10.80;99.90;;;;;;5253940;28;20240;-66
2021/10/12 09:11:21;;;;;;;3.90;1.07;;;10.70;99.90;;;;;;5258898;28;20197;-64
2021/10/12 09:14:02;;;;;;;2.27;1.10;;;10.80;99.90;;;;;;5247874;28;20189;-66
2021/10/12 09:16:38;;;;;;;2.77;0.73;;;10.90;99.90;;;;;;5254926;28;20189;-64
2021/10/12 09:19:15;;;;;;;2.37;0.60;;;10.90;99.90;;;;;;5253659;28;20203;-60
2021/10/12 09:21:49;;;;;;;1.30;0.80;;;11.00;99.90;;;;;;5253784;28;20522;-60
2021/10/12 09:24:23;;;;;;;1.47;0.67;;;11.10;99.90;;;;;;5257286;28;20200;-61
2021/10/12 09:27:02;;;;;;;2.50;0.73;;;11.10;99.90;;;;;;5251945;28;20636;-68
2021/10/12 09:29:38;;;;;;;2.10;0.90;;;11.20;99.90;;;;;;5252104;28;20204;-56
2021/10/12 09:32:11;;;;;;;3.40;1.07;;;11.20;99.90;;;;;;5254029;28;20200;-59
2021/10/12 09:34:45;;;;;;;2.33;0.87;;;11.30;99.90;;;;;;5253873;28;20188;-63
2021/10/12 09:37:17;;;;;;;3.20;1.27;;;11.30;99.90;;;;;;5251572;28;20211;-62
2021/10/12 09:39:50;;;;;;;3.23;1.00;;;11.30;99.90;;;;;;5253308;28;20375;-58
2021/10/12 09:42:22;;;;;;;4.03;1.37;;;11.40;99.90;;;;;;5250924;28;20211;-64
2021/10/12 09:44:56;;;;;;;2.97;1.60;;;11.30;99.90;;;;;;5252118;28;20288;-60
2021/10/12 09:47:28;;;;;;;4.80;1.40;;;11.20;99.90;;;;;;5251134;28;20283;-60
2021/10/12 09:50:09;;;;;;;3.90;1.47;;;11.10;99.90;;;;;;5257375;28;20200;-64
2021/10/12 09:52:49;;;;;;;7.23;1.80;;;11.00;99.90;;;;;;5250687;28;20528;-61
2021/10/12 09:55:41;;;;;;;7.30;1.40;;;11.10;99.90;;;;;;5248012;28;20212;-58
2021/10/12 09:58:13;;;;;;;2.33;1.07;;;11.00;99.90;;;;;;5251274;28;20200;-63
2021/10/12 10:00:45;;;;;;;5.10;1.20;;;11.10;99.90;;;;;;5270221;28;20203;-64
2021/10/12 10:03:18;;;;;;;5.75;1.30;;;11.20;99.90;;;;;;5252239;28;20856;-61
2021/10/12 10:05:53;;;;;;;5.43;1.50;;;11.40;99.90;;;;;;5256162;28;20532;-59
2021/10/12 10:08:30;;;;;;;2.60;1.10;;;11.60;99.90;;;;;;5264099;28;20239;-59
2021/10/12 10:11:22;;;;;;;3.90;1.30;;;11.80;99.90;;;;;;5259920;28;20492;-63
2021/10/12 10:13:56;;;;;;;3.00;0.90;;;12.10;99.90;;;;;;5257737;28;20205;-62
2021/10/12 10:16:29;;;;;;;4.20;1.20;;;12.30;99.90;;;;;;5267156;28;20208;-63
2021/10/12 10:19:01;;;;;;;3.63;1.10;;;12.30;99.90;;;;;;5262616;28;20619;-66
2021/10/12 10:21:38;;;;;;;4.53;0.80;;;12.30;99.90;;;;;;5270534;28;20529;-67
2021/10/12 10:24:19;;;;;;;4.80;1.20;;;12.40;99.90;;;;;;5235764;28;20228;-59
2021/10/12 10:26:51;;;;;;;1.93;0.90;;;12.50;99.90;;;;;;5267082;28;20192;-58
2021/10/12 10:29:25;;;;;;;3.13;0.77;;;12.50;99.90;;;;;;5246907;28;20201;-53
2021/10/12 10:32:19;;;;;;;3.13;1.00;;;12.70;99.90;;;;;;5252801;28;20212;-57
2021/10/12 10:35:00;;;;;;;1.57;0.60;;;12.70;99.90;;;;;;5249202;28;20212;-53
2021/10/12 10:37:34;;;;;;;3.63;0.80;;;12.70;99.90;;;;;;5248585;28;20299;-57
2021/10/12 10:40:23;;;;;;;5.50;1.43;;;12.60;99.90;;;;;;5248448;28;20209;-52
2021/10/12 10:42:57;;;;;;;4.47;1.20;;;12.50;99.90;;;;;;5248968;28;20654;-57
2021/10/12 10:45:41;;;;;;;3.77;1.47;;;12.60;99.90;;;;;;5248308;28;20220;-57
2021/10/12 10:48:15;;;;;;;5.57;1.50;;;12.90;99.90;;;;;;5255612;28;20196;-51
2021/10/12 10:51:23;;;;;;;2.50;1.10;;;13.10;99.90;;;;;;5262228;28;20514;-55
2021/10/12 10:53:55;;;;;;;1.70;0.70;;;12.50;99.90;;;;;;5230364;28;20231;-69
2021/10/12 10:56:27;;;;;;;1.93;0.70;;;11.60;99.90;;;;;;5250120;28;20224;-65
2021/10/12 10:59:21;;;;;;;2.93;0.70;;;11.10;99.90;;;;;;5252014;28;20204;-68
2021/10/12 11:01:55;;;;;;;2.67;0.70;;;10.40;99.90;;;;;;5261430;28;20403;-66
2021/10/12 11:04:46;;;;;;;2.20;0.90;;;10.30;99.90;;;;;;5251811;28;20231;-69
2021/10/12 11:07:24;;;;;;;1.73;0.60;;;10.10;99.90;;;;;;5263753;28;20589;-69
2021/10/12 11:09:57;;;;;;;2.30;0.80;;;10.10;99.90;;;;;;5248331;28;20185;-68
2021/10/12 11:12:31;;;;;;;1.20;0.60;;;9.90;99.90;;;;;;5259182;28;20246;-67
2021/10/12 11:15:07;;;;;;;1.23;0.63;;;9.70;99.90;;;;;;5237278;28;20203;-66
2021/10/12 11:17:45;;;;;;;2.63;0.67;;;9.70;99.90;;;;;;5260477;28;20229;-66
2021/10/12 11:20:20;;;;;;;1.17;0.60;;;9.80;99.90;;;;;;5254968;28;20203;-68
2021/10/12 11:22:54;;;;;;;3.87;0.80;;;9.80;99.90;;;;;;5264486;28;20258;-63
2021/10/12 11:25:29;;;;;;;1.13;0.60;;;9.90;99.90;;;;;;5259036;28;20285;-67
2021/10/12 11:28:10;;;;;;;1.20;0.70;;;9.60;99.90;;;;;;5258770;28;20322;-68
2021/10/12 11:30:42;;;;;;;4.43;1.10;;;9.30;99.90;;;;;;5257264;28;20201;-69
2021/10/12 11:33:15;;;;;;;2.73;1.30;;;9.30;99.90;;;;;;5260406;28;20222;-65
2021/10/12 11:35:47;;;;;;;3.77;1.30;;;9.30;99.90;;;;;;5268081;28;20257;-69
2021/10/12 11:38:31;;;;;;;5.93;1.40;;;9.30;99.90;;;;;;5251843;28;20559;-70
2021/10/12 11:41:18;;;;;;;1.87;0.97;;;9.40;99.90;;;;;;5259666;28;20200;-68
2021/10/12 11:43:55;;;;;;;3.13;0.90;;;9.30;99.90;;;;;;5248892;28;20220;-67
2021/10/12 11:46:33;;;;;;;2.40;0.80;;;9.30;99.90;;;;;;5238192;28;21513;-68
2021/10/12 11:49:11;;;;;;;1.50;0.90;;;9.30;99.90;;;;;;5248305;28;20663;-68
2021/10/12 11:51:44;;;;;;;1.70;0.73;;;9.50;99.90;;;;;;5252452;28;20206;-68
2021/10/12 11:54:26;;;;;;;1.67;0.57;;;9.60;99.90;;;;;;5257021;28;20247;-65
2021/10/12 11:56:58;;;;;;;1.13;0.60;;;9.60;99.90;;;;;;5249885;28;20201;-68
2021/10/12 11:59:35;;;;;;;1.37;0.60;;;9.60;99.90;;;;;;5258196;28;20227;-68
2021/10/12 12:02:07;;;;;;;0.83;0.50;;;9.70;99.90;;;;;;5251836;28;20192;-65
2021/10/12 12:04:40;;;;;;;1.20;0.50;;;9.70;99.90;;;;;;5264919;28;20310;-65
2021/10/12 12:07:13;;;;;;;0.93;0.50;;;9.90;99.90;;;;;;5263786;28;20231;-67
2021/10/12 12:09:46;;;;;;;1.00;0.50;;;10.20;99.90;;;;;;5251617;28;20201;-66
2021/10/12 12:12:19;;;;;;;0.83;0.47;;;10.40;99.90;;;;;;5246813;28;20201;-65
2021/10/12 12:14:52;;;;;;;0.87;0.50;;;10.50;99.90;;;;;;5245528;28;20201;-68
2021/10/12 12:17:31;;;;;;;1.17;0.60;;;10.60;99.90;;;;;;5252706;28;20533;-64
2021/10/12 12:20:11;;;;;;;0.73;0.50;;;10.80;99.90;;;;;;5246769;28;20193;-69
2021/10/12 12:22:46;;;;;;;5.10;0.70;;;10.90;99.90;;;;;;5246604;28;20193;-65
2021/10/12 12:25:21;;;;;;;1.03;0.60;;;11.00;99.90;;;;;;5250778;28;20224;-66
2021/10/12 12:27:59;;;;;;;1.27;0.90;;;11.00;99.90;;;;;;5252636;28;20204;-65
2021/10/12 12:30:38;;;;;;;1.77;0.70;;;10.70;99.90;;;;;;5252008;28;20204;-67
2021/10/12 12:33:10;;;;;;;3.43;1.10;;;10.60;99.90;;;;;;5252030;28;20205;-64
2021/10/12 12:35:47;;;;;;;4.13;0.70;;;10.60;99.90;;;;;;5251207;28;20205;-68
2021/10/12 12:38:32;;;;;;;1.63;0.37;;;10.60;99.90;;;;;;5249661;28;20254;-67
2021/10/12 12:41:16;;;;;;;1.50;0.70;;;10.60;99.90;;;;;;5252138;28;20212;-72
2021/10/12 12:43:56;;;;;;;1.90;0.53;;;10.60;99.90;;;;;;5252761;28;20200;-69
2021/10/12 12:46:28;;;;;;;3.07;0.80;;;10.60;99.90;;;;;;5251563;28;20533;-65
2021/10/12 12:49:16;;;;;;;1.90;0.87;;;10.60;99.90;;;;;;5251654;28;20197;-66
2021/10/12 12:51:48;;;;;;;2.63;0.80;;;10.60;99.90;;;;;;5252435;28;20193;-65
2021/10/12 12:54:46;;;;;;;1.73;0.80;;;10.60;99.90;;;;;;5252170;28;20205;-67
2021/10/12 12:57:19;;;;;;;1.03;0.50;;;10.80;99.90;;;;;;5251841;28;20290;-66
2021/10/12 13:00:09;;;;;;;2.37;0.83;;;11.00;99.90;;;;;;5250861;28;20211;-67
2021/10/12 13:02:51;;;;;;;3.60;1.00;;;11.10;99.90;;;;;;5252141;28;20596;-69
2021/10/12 13:05:27;;;;;;;2.37;0.90;;;11.30;99.90;;;;;;5251919;28;20221;-65
2021/10/12 13:08:00;;;;;;;2.97;0.90;;;11.40;99.90;;;;;;5251999;28;20247;-65
2021/10/12 13:10:33;;;;;;;3.63;0.80;;;11.50;99.90;;;;;;5251967;28;20205;-66
2021/10/12 13:13:05;;;;;;;3.03;0.90;;;11.40;99.90;;;;;;5252866;28;20562;-62
2021/10/12 13:15:36;;;;;;;3.77;1.17;;;11.30;99.90;;;;;;5252169;28;20227;-65
2021/10/12 13:18:08;;;;;;;2.50;1.00;;;11.30;99.90;;;;;;5234762;28;20233;-63
2021/10/12 13:20:41;;;;;;;4.47;1.43;;;11.40;99.90;;;;;;5231342;28;20198;-70
2021/10/12 13:23:13;;;;;;;3.30;0.97;;;11.50;99.90;;;;;;5231590;28;20227;-67
2021/10/12 13:25:45;;;;;;;7.97;1.27;;;11.50;99.90;;;;;;5231295;28;20209;-69
2021/10/12 13:28:19;;;;;;;1.77;0.90;;;11.50;99.90;;;;;;5231244;28;20220;-67
2021/10/12 13:30:51;;;;;;;2.33;0.80;;;11.50;99.90;;;;;;5229858;28;20186;-66
2021/10/12 13:33:25;;;;;;;4.13;1.00;;;11.80;99.90;;;;;;5234136;28;20197;-64
2021/10/12 13:35:57;;;;;;;3.13;0.60;;;11.80;99.90;;;;;;5249511;28;20662;-68